createdAt,value
2018-05-07T00:01:15.804Z,16.40
2018-05-07T00:03:43.340Z,16.30
2018-05-07T00:06:10.911Z,16.30
2018-05-07T00:08:38.444Z,16.20
2018-05-07T00:11:05.916Z,16.20
2018-05-07T00:13:33.427Z,16.20
2018-05-07T00:16:00.966Z,16.10
2018-05-07T00:18:29.317Z,16.00
2018-05-07T00:20:56.827Z,16.00
2018-05-07T00:23:25.123Z,15.90
2018-05-07T00:25:52.641Z,15.90
2018-05-07T00:28:20.154Z,15.90
2018-05-07T00:30:47.715Z,15.90
2018-05-07T00:33:15.264Z,15.80
2018-05-07T00:35:43.537Z,15.80
2018-05-07T00:38:11.235Z,15.80
2018-05-07T00:40:38.714Z,15.80
2018-05-07T00:43:06.307Z,15.80
2018-05-07T00:45:34.633Z,15.70
2018-05-07T00:48:02.248Z,15.70
2018-05-07T00:50:29.888Z,15.70
2018-05-07T00:52:57.911Z,15.60
2018-05-07T00:55:25.408Z,15.60
2018-05-07T00:57:53.063Z,15.60
2018-05-07T01:00:21.344Z,15.50
2018-05-07T01:02:48.849Z,15.50
2018-05-07T01:05:16.385Z,15.40
2018-05-07T01:07:43.918Z,15.40
2018-05-07T01:10:11.594Z,15.40
2018-05-07T01:12:39.168Z,15.40
2018-05-07T01:15:07.345Z,15.30
2018-05-07T01:17:34.961Z,15.30
2018-05-07T01:20:02.481Z,15.30
2018-05-07T01:22:29.968Z,15.30
2018-05-07T01:24:57.559Z,15.20
2018-05-07T01:27:25.142Z,15.20
2018-05-07T01:29:52.646Z,15.20
2018-05-07T01:32:20.180Z,15.10
2018-05-07T01:34:47.705Z,15.10
2018-05-07T01:37:15.250Z,15.10
2018-05-07T01:39:43.538Z,15.00
2018-05-07T01:42:11.918Z,15.00
2018-05-07T01:44:40.283Z,15.00
2018-05-07T01:47:07.905Z,15.00
2018-05-07T01:49:35.375Z,15.00
2018-05-07T01:52:02.938Z,14.90
2018-05-07T01:54:30.503Z,14.90
2018-05-07T01:56:58.015Z,14.80
2018-05-07T01:59:25.532Z,14.80
2018-05-07T02:01:53.806Z,14.80
2018-05-07T02:04:21.356Z,14.70
2018-05-07T02:06:48.951Z,14.70
2018-05-07T02:09:16.525Z,14.70
2018-05-07T02:11:44.095Z,14.70
2018-05-07T02:14:11.782Z,14.70
2018-05-07T02:16:40.161Z,14.60
2018-05-07T02:19:07.778Z,14.60
2018-05-07T02:21:35.354Z,14.60
2018-05-07T02:24:02.860Z,14.60
2018-05-07T02:26:30.446Z,14.50
2018-05-07T02:28:58.020Z,14.50
2018-05-07T02:31:26.398Z,14.40
2018-05-07T02:33:53.879Z,14.40
2018-05-07T02:36:21.480Z,14.40
2018-05-07T02:38:49.099Z,14.40
2018-05-07T02:41:17.406Z,14.40
2018-05-07T02:43:44.923Z,14.30
2018-05-07T02:46:12.402Z,14.30
2018-05-07T02:48:39.925Z,14.30
2018-05-07T02:51:07.410Z,14.30
2018-05-07T02:53:35.703Z,14.30
2018-05-07T02:56:03.975Z,14.30
2018-05-07T02:58:31.485Z,14.20
2018-05-07T03:00:59.057Z,14.20
2018-05-07T03:03:26.606Z,14.20
2018-05-07T03:05:54.155Z,14.20
2018-05-07T03:08:21.659Z,14.20
2018-05-07T03:10:49.307Z,14.10
2018-05-07T03:13:18.543Z,14.10
2018-05-07T03:15:46.063Z,14.10
2018-05-07T03:18:14.226Z,14.10
2018-05-07T03:20:41.866Z,14.00
2018-05-07T03:23:09.576Z,14.00
2018-05-07T03:25:37.131Z,14.00
2018-05-07T03:28:04.621Z,14.00
2018-05-07T03:30:32.567Z,14.00
2018-05-07T03:33:00.066Z,13.90
2018-05-07T03:35:27.728Z,13.90
2018-05-07T03:37:55.356Z,13.90
2018-05-07T03:40:22.856Z,13.90
2018-05-07T03:42:50.408Z,13.90
2018-05-07T03:45:18.680Z,13.80
2018-05-07T03:47:46.245Z,13.80
2018-05-07T03:50:13.743Z,13.80
2018-05-07T03:52:42.021Z,13.80
2018-05-07T03:55:10.313Z,13.70
2018-05-07T03:57:38.585Z,13.80
2018-05-07T04:00:06.135Z,13.70
2018-05-07T04:02:33.736Z,13.80
2018-05-07T04:05:02.077Z,13.80
2018-05-07T04:07:29.582Z,13.70
2018-05-07T04:09:57.170Z,13.70
2018-05-07T04:12:25.424Z,13.80
2018-05-07T04:14:52.936Z,13.70
2018-05-07T04:17:33.047Z,13.70
2018-05-07T04:20:13.132Z,13.80
2018-05-07T04:22:52.614Z,13.80
2018-05-07T04:25:20.903Z,13.80
2018-05-07T04:27:49.519Z,13.80
2018-05-07T04:30:17.035Z,13.80
2018-05-07T04:32:44.515Z,13.80
2018-05-07T04:35:12.205Z,13.90
2018-05-07T04:37:39.693Z,13.90
2018-05-07T04:40:07.985Z,14.00
2018-05-07T04:42:36.227Z,14.00
2018-05-07T04:45:03.762Z,14.00
2018-05-07T04:47:31.252Z,14.00
2018-05-07T04:49:58.892Z,14.00
2018-05-07T04:52:26.438Z,14.00
2018-05-07T04:54:54.018Z,14.10
2018-05-07T04:57:22.315Z,14.10
2018-05-07T04:59:50.608Z,14.20
2018-05-07T05:02:18.124Z,14.20
2018-05-07T05:04:46.451Z,14.20
2018-05-07T05:07:14.790Z,14.20
2018-05-07T05:09:42.294Z,14.20
2018-05-07T05:12:09.920Z,14.30
2018-05-07T05:14:37.447Z,14.30
2018-05-07T05:17:04.962Z,14.30
2018-05-07T05:19:32.823Z,14.40
2018-05-07T05:22:00.435Z,14.40
2018-05-07T05:24:27.953Z,14.40
2018-05-07T05:26:56.262Z,14.60
2018-05-07T05:29:23.792Z,14.60
2018-05-07T05:31:51.375Z,14.60
2018-05-07T05:34:18.858Z,14.70
2018-05-07T05:36:47.179Z,14.80
2018-05-07T05:39:14.790Z,14.70
2018-05-07T05:41:42.295Z,14.80
2018-05-07T05:44:09.783Z,14.90
2018-05-07T05:46:37.303Z,14.90
2018-05-07T05:49:04.978Z,15.30
2018-05-07T05:51:32.489Z,16.10
2018-05-07T05:54:00.065Z,16.80
2018-05-07T05:56:27.672Z,17.30
2018-05-07T05:58:56.091Z,17.70
2018-05-07T06:01:23.593Z,17.70
2018-05-07T06:03:51.208Z,17.50
2018-05-07T06:06:18.822Z,17.20
2018-05-07T06:08:47.141Z,16.80
2018-05-07T06:11:14.659Z,16.80
2018-05-07T06:13:42.174Z,16.70
2018-05-07T06:16:09.777Z,16.60
2018-05-07T06:18:37.495Z,16.60
2018-05-07T06:21:05.783Z,16.60
2018-05-07T06:23:34.060Z,16.60
2018-05-07T06:26:01.691Z,16.60
2018-05-07T06:28:29.189Z,16.60
2018-05-07T06:30:57.165Z,16.60
2018-05-07T06:33:24.702Z,16.60
2018-05-07T06:35:52.240Z,16.60
2018-05-07T06:38:20.518Z,16.70
2018-05-07T06:40:48.821Z,16.80
2018-05-07T06:43:17.138Z,16.80
2018-05-07T06:45:44.674Z,16.80
2018-05-07T06:48:12.239Z,16.90
2018-05-07T06:50:40.592Z,17.00
2018-05-07T06:53:08.095Z,16.90
2018-05-07T06:55:36.325Z,17.00
2018-05-07T06:58:03.834Z,17.10
2018-05-07T07:00:31.497Z,17.10
2018-05-07T07:02:59.071Z,17.20
2018-05-07T07:05:26.609Z,17.20
2018-05-07T07:07:54.250Z,17.20
2018-05-07T07:10:22.517Z,17.30
2018-05-07T07:12:50.090Z,17.30
2018-05-07T07:15:17.695Z,17.30
2018-05-07T07:17:45.313Z,17.40
2018-05-07T07:20:12.800Z,17.40
2018-05-07T07:22:40.402Z,17.40
2018-05-07T07:25:08.078Z,17.50
2018-05-07T07:27:35.576Z,17.50
2018-05-07T07:30:03.185Z,17.60
2018-05-07T07:32:30.659Z,17.70
2018-05-07T07:34:59.111Z,17.70
2018-05-07T07:37:26.597Z,17.80
2018-05-07T07:39:54.106Z,17.80
2018-05-07T07:42:22.343Z,17.90
2018-05-07T07:44:49.950Z,17.90
2018-05-07T07:47:17.551Z,18.00
2018-05-07T07:49:44.985Z,18.10
2018-05-07T07:52:12.524Z,18.10
2018-05-07T07:54:40.145Z,18.20
2018-05-07T07:57:08.543Z,18.40
2018-05-07T07:59:36.948Z,18.40
2018-05-07T08:02:04.525Z,18.40
2018-05-07T08:04:33.364Z,18.50
2018-05-07T08:07:00.976Z,18.50
2018-05-07T08:09:29.302Z,18.70
2018-05-07T08:11:56.955Z,18.70
2018-05-07T08:14:24.512Z,18.80
2018-05-07T08:16:52.790Z,18.90
2018-05-07T08:19:20.490Z,18.90
2018-05-07T08:21:48.087Z,19.00
2018-05-07T08:24:15.786Z,19.20
2018-05-07T08:26:43.462Z,19.20
2018-05-07T08:29:11.124Z,19.30
2018-05-07T08:31:38.617Z,19.30
2018-05-07T08:34:06.295Z,19.30
2018-05-07T08:36:33.994Z,19.50
2018-05-07T08:39:01.659Z,19.50
2018-05-07T08:41:30.052Z,19.70
2018-05-07T08:43:58.348Z,19.80
2018-05-07T08:46:26.826Z,19.80
2018-05-07T08:48:55.140Z,19.90
2018-05-07T08:51:22.700Z,19.90
2018-05-07T08:53:51.005Z,20.10
2018-05-07T08:56:18.500Z,20.10
2018-05-07T08:58:46.077Z,20.10
2018-05-07T09:01:13.719Z,20.20
2018-05-07T09:03:41.224Z,20.30
2018-05-07T09:06:08.837Z,20.40
2018-05-07T09:08:37.163Z,20.60
2018-05-07T09:11:04.669Z,20.60
2018-05-07T09:13:32.403Z,20.80
2018-05-07T09:15:59.983Z,20.90
2018-05-07T09:18:27.481Z,21.00
2018-05-07T09:20:55.207Z,21.10
2018-05-07T09:23:22.693Z,21.20
2018-05-07T09:25:50.243Z,21.40
2018-05-07T09:28:18.627Z,21.60
2018-05-07T09:30:46.893Z,21.80
2018-05-07T09:33:15.248Z,21.90
2018-05-07T09:35:42.753Z,21.80
2018-05-07T09:38:10.419Z,22.10
2018-05-07T09:40:37.989Z,22.30
2018-05-07T09:43:05.621Z,22.40
2018-05-07T09:45:33.221Z,22.60
2018-05-07T09:48:00.852Z,22.80
2018-05-07T09:50:28.466Z,23.20
2018-05-07T09:52:55.969Z,23.50
2018-05-07T09:55:24.444Z,24.00
2018-05-07T09:58:02.937Z,24.00
2018-05-07T10:00:36.035Z,24.20
2018-05-07T10:03:03.574Z,24.50
2018-05-07T10:05:31.828Z,25.20
2018-05-07T10:07:59.944Z,25.10
2018-05-07T10:10:28.126Z,25.40
2018-05-07T10:12:56.536Z,26.10
2018-05-07T10:15:24.116Z,26.00
2018-05-07T10:17:51.608Z,26.10
2018-05-07T10:20:19.133Z,26.40
2018-05-07T10:22:47.449Z,26.70
2018-05-07T10:25:15.003Z,26.60
2018-05-07T10:27:43.360Z,26.90
2018-05-07T10:30:11.070Z,26.80
2018-05-07T10:32:39.601Z,27.40
2018-05-07T10:35:07.086Z,27.30
2018-05-07T10:37:34.709Z,27.50
2018-05-07T10:40:03.020Z,27.60
2018-05-07T10:42:30.535Z,27.60
2018-05-07T10:44:58.102Z,27.90
2018-05-07T10:47:25.642Z,28.20
2018-05-07T10:49:53.240Z,28.40
2018-05-07T10:52:20.741Z,28.60
2018-05-07T10:54:49.389Z,28.90
2018-05-07T10:57:17.145Z,28.80
2018-05-07T10:59:44.738Z,29.00
2018-05-07T11:02:12.441Z,29.10
2018-05-07T11:04:39.930Z,29.40
2018-05-07T11:07:08.285Z,30.10
2018-05-07T11:09:35.723Z,30.10
2018-05-07T11:12:03.491Z,30.30
2018-05-07T11:14:31.024Z,30.60
2018-05-07T11:16:58.508Z,30.90
2018-05-07T11:19:26.820Z,31.40
2018-05-07T11:21:54.500Z,31.30
2018-05-07T11:24:22.040Z,31.50
2018-05-07T11:26:49.630Z,31.60
2018-05-07T11:29:17.911Z,31.90
2018-05-07T11:31:46.161Z,31.90
2018-05-07T11:34:13.697Z,31.80
2018-05-07T11:36:41.238Z,32.00
2018-05-07T11:39:09.559Z,32.20
2018-05-07T11:41:37.797Z,32.30
2018-05-07T11:44:05.350Z,32.30
2018-05-07T11:46:32.876Z,32.50
2018-05-07T11:49:00.363Z,32.50
2018-05-07T11:51:27.888Z,32.20
2018-05-07T11:53:55.461Z,32.10
2018-05-07T11:56:23.107Z,32.30
2018-05-07T11:58:50.629Z,32.30
2018-05-07T12:01:18.131Z,32.50
2018-05-07T12:03:45.669Z,32.40
2018-05-07T12:06:13.185Z,32.60
2018-05-07T12:08:40.818Z,32.80
2018-05-07T12:11:08.301Z,33.00
2018-05-07T12:13:35.908Z,33.10
2018-05-07T12:16:03.484Z,33.20
2018-05-07T12:18:30.987Z,33.00
2018-05-07T12:20:59.314Z,32.30
2018-05-07T12:23:26.828Z,32.30
2018-05-07T12:25:54.353Z,32.30
2018-05-07T12:28:21.904Z,32.50
2018-05-07T12:30:50.180Z,32.50
2018-05-07T12:33:19.042Z,32.60
2018-05-07T12:35:46.576Z,32.60
2018-05-07T12:38:14.196Z,32.80
2018-05-07T12:40:41.791Z,32.80
2018-05-07T12:43:09.505Z,32.70
2018-05-07T12:45:37.061Z,32.70
2018-05-07T12:48:04.607Z,32.80
2018-05-07T12:50:32.180Z,32.80
2018-05-07T12:53:00.460Z,33.00
2018-05-07T12:55:27.945Z,33.00
2018-05-07T12:57:56.315Z,33.10
2018-05-07T13:00:23.897Z,33.10
2018-05-07T13:02:51.409Z,33.10
2018-05-07T13:05:18.887Z,33.10
2018-05-07T13:07:46.422Z,33.20
2018-05-07T13:10:14.681Z,32.80
2018-05-07T13:12:42.213Z,32.80
2018-05-07T13:15:09.766Z,32.80
2018-05-07T13:17:37.288Z,32.80
2018-05-07T13:20:04.945Z,32.80
2018-05-07T13:22:32.504Z,33.00
2018-05-07T13:25:00.017Z,33.10
2018-05-07T13:27:27.545Z,33.00
2018-05-07T13:29:55.081Z,32.80
2018-05-07T13:32:22.675Z,32.60
2018-05-07T13:34:50.330Z,32.50
2018-05-07T13:37:18.898Z,32.60
2018-05-07T13:39:46.370Z,32.60
2018-05-07T13:42:14.008Z,32.60
2018-05-07T13:44:41.753Z,32.50
2018-05-07T13:47:09.269Z,32.40
2018-05-07T13:49:36.765Z,32.20
2018-05-07T13:52:04.240Z,31.90
2018-05-07T13:54:32.534Z,31.70
2018-05-07T13:57:00.806Z,31.50
2018-05-07T13:59:28.325Z,31.50
2018-05-07T14:01:55.825Z,31.30
2018-05-07T14:04:23.483Z,31.10
2018-05-07T14:06:51.062Z,31.10
2018-05-07T14:09:18.580Z,31.10
2018-05-07T14:11:46.133Z,31.20
2018-05-07T14:14:13.736Z,31.30
2018-05-07T14:16:41.306Z,31.10
2018-05-07T14:19:08.801Z,30.90
2018-05-07T14:21:36.332Z,30.70
2018-05-07T14:24:04.646Z,30.50
2018-05-07T14:26:32.260Z,30.50
2018-05-07T14:28:59.887Z,30.50
2018-05-07T14:31:27.669Z,30.60
2018-05-07T14:33:55.189Z,30.60
2018-05-07T14:36:22.709Z,30.70
2018-05-07T14:38:50.426Z,30.70
2018-05-07T14:41:18.074Z,30.60
2018-05-07T14:43:45.834Z,30.60
2018-05-07T14:46:13.335Z,30.60
2018-05-07T14:48:41.146Z,30.60
2018-05-07T14:51:08.633Z,30.30
2018-05-07T14:53:36.914Z,30.20
2018-05-07T14:56:04.678Z,30.10
2018-05-07T14:58:32.200Z,30.00
2018-05-07T15:00:59.995Z,30.00
2018-05-07T15:03:27.576Z,29.80
2018-05-07T15:05:55.131Z,29.70
2018-05-07T15:08:22.660Z,29.70
2018-05-07T15:10:51.334Z,29.50
2018-05-07T15:13:18.875Z,29.40
2018-05-07T15:15:46.410Z,29.50
2018-05-07T15:18:13.946Z,29.40
2018-05-07T15:20:43.209Z,29.20
2018-05-07T15:23:10.841Z,29.20
2018-05-07T15:25:38.340Z,29.20
2018-05-07T15:28:05.922Z,29.10
2018-05-07T15:30:33.479Z,29.10
2018-05-07T15:33:01.139Z,29.10
2018-05-07T15:35:29.431Z,29.00
2018-05-07T15:37:57.729Z,28.90
2018-05-07T15:40:25.248Z,28.80
2018-05-07T15:42:52.866Z,28.80
2018-05-07T15:45:21.264Z,28.60
2018-05-07T15:47:48.790Z,28.60
2018-05-07T15:50:16.315Z,28.50
2018-05-07T15:52:43.813Z,28.50
2018-05-07T15:55:11.529Z,28.40
2018-05-07T15:57:39.797Z,28.20
2018-05-07T16:00:07.316Z,28.20
2018-05-07T16:02:34.927Z,28.10
2018-05-07T16:05:02.561Z,27.90
2018-05-07T16:07:30.995Z,27.90
2018-05-07T16:09:58.641Z,27.70
2018-05-07T16:12:26.231Z,27.50
2018-05-07T16:14:53.791Z,27.50
2018-05-07T16:17:22.082Z,27.30
2018-05-07T16:19:50.470Z,27.30
2018-05-07T16:22:18.285Z,27.20
2018-05-07T16:24:46.464Z,27.00
2018-05-07T16:27:16.453Z,27.00
2018-05-07T16:29:43.998Z,27.00
2018-05-07T16:32:12.340Z,26.90
2018-05-07T16:34:39.903Z,26.80
2018-05-07T16:37:07.445Z,26.80
2018-05-07T16:39:35.048Z,26.70
2018-05-07T16:42:02.562Z,26.70
2018-05-07T16:44:31.249Z,26.40
2018-05-07T16:46:59.718Z,26.40
2018-05-07T16:49:27.398Z,26.40
2018-05-07T16:51:54.974Z,26.30
2018-05-07T16:54:22.562Z,26.30
2018-05-07T16:56:51.295Z,26.10
2018-05-07T16:59:18.848Z,26.10
2018-05-07T17:01:47.148Z,26.00
2018-05-07T17:04:15.661Z,26.00
2018-05-07T17:06:43.209Z,26.00
2018-05-07T17:09:10.723Z,25.90
2018-05-07T17:11:38.297Z,25.90
2018-05-07T17:14:05.973Z,25.90
2018-05-07T17:16:33.627Z,25.80
2018-05-07T17:19:01.157Z,25.70
2018-05-07T17:21:28.797Z,25.70
2018-05-07T17:23:56.312Z,25.70
2018-05-07T17:26:24.663Z,25.60
2018-05-07T17:28:52.289Z,25.50
2018-05-07T17:31:19.974Z,25.50
2018-05-07T17:33:47.690Z,25.50
2018-05-07T17:36:16.026Z,25.40
2018-05-07T17:38:43.633Z,25.40
2018-05-07T17:41:11.151Z,25.30
2018-05-07T17:43:40.088Z,25.10
2018-05-07T17:46:19.576Z,25.10
2018-05-07T17:48:56.240Z,25.10
2018-05-07T17:51:23.998Z,25.00
2018-05-07T17:53:51.643Z,25.00
2018-05-07T17:56:20.768Z,24.80
2018-05-07T17:58:48.347Z,24.80
2018-05-07T18:01:15.867Z,24.80
2018-05-07T18:03:43.611Z,24.70
2018-05-07T18:06:11.529Z,24.60
2018-05-07T18:08:39.193Z,24.50
2018-05-07T18:11:07.584Z,24.40
2018-05-07T18:13:35.111Z,24.40
2018-05-07T18:16:02.713Z,24.40
2018-05-07T18:18:30.364Z,24.30
2018-05-07T18:20:58.135Z,24.30
2018-05-07T18:23:25.806Z,24.20
2018-05-07T18:25:53.348Z,24.20
2018-05-07T18:28:21.977Z,24.10
2018-05-07T18:30:50.315Z,24.10
2018-05-07T18:33:18.474Z,24.10
2018-05-07T18:35:46.341Z,24.00
2018-05-07T18:38:14.217Z,24.00
2018-05-07T18:40:41.822Z,23.90
2018-05-07T18:43:10.692Z,23.90
2018-05-07T18:45:38.415Z,23.90
2018-05-07T18:48:07.546Z,23.80
2018-05-07T18:50:35.893Z,23.70
2018-05-07T18:53:03.426Z,23.70
2018-05-07T18:55:31.086Z,23.60
2018-05-07T18:57:58.820Z,23.60
2018-05-07T19:00:26.615Z,23.50
2018-05-07T19:02:54.354Z,23.50
2018-05-07T19:05:21.912Z,23.40
2018-05-07T19:07:50.975Z,23.30
2018-05-07T19:10:18.655Z,23.30
2018-05-07T19:12:46.229Z,23.20
2018-05-07T19:15:13.856Z,23.20
2018-05-07T19:17:41.730Z,23.10
2018-05-07T19:20:09.520Z,23.10
2018-05-07T19:22:37.192Z,23.10
2018-05-07T19:25:04.794Z,23.00
2018-05-07T19:27:32.646Z,23.00
2018-05-07T19:30:01.114Z,22.90
2018-05-07T19:32:28.718Z,22.90
2018-05-07T19:34:56.913Z,22.90
2018-05-07T19:39:55.428Z,22.70
2018-05-07T19:42:23.196Z,22.60
2018-05-07T19:44:51.091Z,22.50
2018-05-07T19:47:19.173Z,22.40
2018-05-07T19:49:47.260Z,22.30
2018-05-07T19:52:15.255Z,22.20
2018-05-07T19:54:43.305Z,22.20
2018-05-07T19:57:11.905Z,22.10
2018-05-07T19:59:40.246Z,22.10
2018-05-07T20:02:08.715Z,22.00
2018-05-07T20:04:36.686Z,22.00
2018-05-07T20:07:05.124Z,22.00
2018-05-07T20:09:33.262Z,21.90
2018-05-07T20:12:01.555Z,21.90
2018-05-07T20:14:30.072Z,21.80
2018-05-07T20:16:57.639Z,21.70
2018-05-07T20:19:25.595Z,21.70
2018-05-07T20:21:53.562Z,21.60
2018-05-07T20:24:21.940Z,21.50
2018-05-07T20:26:49.585Z,21.50
2018-05-07T20:29:18.007Z,21.50
2018-05-07T20:31:46.363Z,21.50
2018-05-07T20:34:14.213Z,21.40
2018-05-07T20:36:42.275Z,21.40
2018-05-07T20:39:10.365Z,21.40
2018-05-07T20:41:38.551Z,21.30
2018-05-07T20:44:06.881Z,21.30
2018-05-07T20:46:34.866Z,21.30
2018-05-07T20:49:02.833Z,21.20
2018-05-07T20:51:31.523Z,21.20
2018-05-07T20:53:59.132Z,21.20
2018-05-07T20:56:26.891Z,21.10
2018-05-07T20:58:55.031Z,21.10
2018-05-07T21:01:22.964Z,21.10
2018-05-07T21:03:51.033Z,21.00
2018-05-07T21:06:18.884Z,21.00
2018-05-07T21:08:46.759Z,21.30
2018-05-07T21:11:15.257Z,21.70
2018-05-07T21:13:43.181Z,21.90
2018-05-07T21:16:11.524Z,22.10
2018-05-07T21:18:39.560Z,22.10
2018-05-07T21:21:08.948Z,22.20
2018-05-07T21:23:36.708Z,22.20
2018-05-07T21:26:04.635Z,22.20
2018-05-07T21:28:32.949Z,21.90
2018-05-07T21:31:00.653Z,21.90
2018-05-07T21:33:28.300Z,21.70
2018-05-07T21:35:56.565Z,21.60
2018-05-07T21:38:25.190Z,21.20
2018-05-07T21:40:53.292Z,21.20
2018-05-07T21:43:21.156Z,21.10
2018-05-07T21:45:49.338Z,21.00
2018-05-07T21:48:17.604Z,20.90
2018-05-07T21:50:46.217Z,20.80
2018-05-07T21:53:13.880Z,20.80
2018-05-07T21:55:42.216Z,20.60
2018-05-07T21:58:09.864Z,20.60
2018-05-07T22:00:37.443Z,20.60
2018-05-07T22:03:05.105Z,20.60
2018-05-07T22:05:32.884Z,20.50
2018-05-07T22:08:00.675Z,20.40
2018-05-07T22:10:29.054Z,20.30
2018-05-07T22:12:56.871Z,20.30
2018-05-07T22:15:24.376Z,20.30
2018-05-07T22:17:51.938Z,20.20
2018-05-07T22:20:20.371Z,20.10
2018-05-07T22:22:48.018Z,20.10
2018-05-07T22:25:15.596Z,20.10
2018-05-07T22:27:43.376Z,20.10
2018-05-07T22:30:10.897Z,20.00
2018-05-07T22:32:38.428Z,19.90
2018-05-07T22:35:06.029Z,19.90
2018-05-07T22:37:33.541Z,19.90
2018-05-07T22:40:01.880Z,19.80
2018-05-07T22:42:29.557Z,19.70
2018-05-07T22:44:57.101Z,19.70
2018-05-07T22:47:24.633Z,19.60
2018-05-07T22:49:52.950Z,19.60
2018-05-07T22:52:20.574Z,19.60
2018-05-07T22:54:48.180Z,19.50
2018-05-07T22:57:16.471Z,19.50
2018-05-07T22:59:44.770Z,19.40
2018-05-07T23:02:12.280Z,19.40
2018-05-07T23:04:39.803Z,19.40
2018-05-07T23:07:07.584Z,19.30
2018-05-07T23:09:35.076Z,19.30
2018-05-07T23:12:02.626Z,19.20
2018-05-07T23:14:30.169Z,19.20
2018-05-07T23:16:57.712Z,19.10
2018-05-07T23:19:25.239Z,19.10
2018-05-07T23:21:52.970Z,19.10
2018-05-07T23:24:20.534Z,19.00
2018-05-07T23:26:48.058Z,19.00
2018-05-07T23:29:15.615Z,18.90
2018-05-07T23:31:43.954Z,18.90
2018-05-07T23:34:11.451Z,18.80
2018-05-07T23:36:38.999Z,18.80
2018-05-07T23:39:06.490Z,18.80
2018-05-07T23:41:34.070Z,18.70
2018-05-07T23:44:02.364Z,18.70
2018-05-07T23:46:30.765Z,18.60
2018-05-07T23:48:59.260Z,18.60
2018-05-07T23:51:27.525Z,18.50
2018-05-07T23:53:55.007Z,18.50
2018-05-07T23:56:23.333Z,18.40
2018-05-07T23:58:50.829Z,18.40
